Time;durP1;ratioP1;P1;durP2;ratioP2;P2;SDS_P1;SDS_P2;PMS_P1;PMS_P2;Temp;Humidity;BMP_temperature;BMP_pressure;BME280_temperature;BME280_humidity;BME280_pressure;Samples;Min_cycle;Max_cycle;Signal;HPM_P1;HPM_P2
2023/04/09 00:00:42;;;;;;;;;;;12.10;99.90;;;;;;8374646;28;20308;-77
2023/04/09 00:04:44;;;;;;;;;;;12.10;99.90;;;;;;8389817;28;19925;-77
2023/04/09 00:08:46;;;;;;;;;;;12.20;99.90;;;;;;8385017;28;19931;-77
2023/04/09 00:12:47;;;;;;;;;;;12.20;99.90;;;;;;8379310;28;19924;-77
2023/04/09 00:16:49;;;;;;;;;;;12.20;99.90;;;;;;8375350;28;20295;-77
2023/04/09 00:20:51;;;;;;;;;;;12.20;99.90;;;;;;8395448;28;19938;-77
2023/04/09 00:24:52;;;;;;;;;;;12.20;99.90;;;;;;8391065;28;19929;-77
2023/04/09 00:28:54;;;;;;;;;;;12.20;99.90;;;;;;8377767;28;20292;-77
2023/04/09 00:32:56;;;;;;;;;;;12.20;99.90;;;;;;8388198;28;19928;-77
2023/04/09 00:36:58;;;;;;;;;;;12.20;99.90;;;;;;8377893;28;20295;-77
2023/04/09 00:41:00;;;;;;;;;;;12.10;99.90;;;;;;8394748;28;19928;-77
2023/04/09 00:45:02;;;;;;;;;;;12.10;99.90;;;;;;8380108;28;19935;-77
2023/04/09 00:49:04;;;;;;;;;;;12.10;99.90;;;;;;8381813;28;19925;-77
2023/04/09 00:53:06;;;;;;;;;;;12.10;99.90;;;;;;8371757;28;19936;-77
2023/04/09 00:57:07;;;;;;;;;;;12.10;99.90;;;;;;8389591;28;20015;-77
2023/04/09 01:01:09;;;;;;;;;;;12.10;99.90;;;;;;8390390;28;19932;-77
2023/04/09 01:05:11;;;;;;;;;;;12.10;99.90;;;;;;8420597;27;19925;-77
2023/04/09 01:09:32;;;;;;;;;;;12.10;99.90;;;;;;8385200;28;19964;-77
2023/04/09 01:13:44;;;;;;;;;;;12.10;99.90;;;;;;8394231;28;20402;-77
2023/04/09 01:17:49;;;;;;;;;;;12.10;99.90;;;;;;8374730;28;20013;-77
2023/04/09 01:21:51;;;;;;;;;;;12.10;99.90;;;;;;8379868;28;19928;-77
2023/04/09 01:26:05;;;;;;;;;;;12.00;99.90;;;;;;8383455;28;19932;-77
2023/04/09 01:30:08;;;;;;;;;;;12.00;99.90;;;;;;8392893;28;19947;-77
2023/04/09 01:34:10;;;;;;;;;;;11.90;99.90;;;;;;8394054;28;20292;-77
2023/04/09 01:38:13;;;;;;;;;;;11.80;99.90;;;;;;8372955;28;19972;-77
2023/04/09 01:42:14;;;;;;;;;;;11.60;99.90;;;;;;8409280;28;19928;-77
2023/04/09 01:46:20;;;;;;;;;;;11.60;99.90;;;;;;8381059;28;20319;-77
2023/04/09 01:50:21;;;;;;;;;;;11.60;99.90;;;;;;8378961;28;20431;-77
2023/04/09 01:54:23;;;;;;;;;;;11.60;99.90;;;;;;8375071;28;19994;-77
2023/04/09 01:58:25;;;;;;;;;;;11.50;99.90;;;;;;8379085;28;19939;-77
2023/04/09 02:02:30;;;;;;;;;;;11.50;99.90;;;;;;8376387;28;19932;-78
2023/04/09 02:06:31;;;;;;;;;;;11.50;99.90;;;;;;8388405;28;19939;-77
2023/04/09 02:10:34;;;;;;;;;;;11.60;99.90;;;;;;8400739;28;20006;-77
2023/04/09 02:14:36;;;;;;;;;;;11.60;99.90;;;;;;8366231;28;19936;-77
2023/04/09 02:18:38;;;;;;;;;;;11.60;99.90;;;;;;8408938;28;19948;-77
2023/04/09 02:22:39;;;;;;;;;;;11.60;99.90;;;;;;8368905;28;19933;-77
2023/04/09 02:26:41;;;;;;;;;;;11.60;99.90;;;;;;8388975;28;19929;-77
2023/04/09 02:30:43;;;;;;;;;;;11.60;99.90;;;;;;8382334;28;19935;-77
2023/04/09 02:34:44;;;;;;;;;;;11.60;99.90;;;;;;8376767;28;19928;-77
2023/04/09 02:38:46;;;;;;;;;;;11.60;99.90;;;;;;8391656;28;19936;-77
2023/04/09 02:42:48;;;;;;;;;;;11.60;99.90;;;;;;8376139;28;19932;-77
2023/04/09 02:46:50;;;;;;;;;;;11.60;99.90;;;;;;8387093;28;19924;-77
2023/04/09 02:50:52;;;;;;;;;;;11.60;99.90;;;;;;8383547;28;20203;-77
2023/04/09 02:54:53;;;;;;;;;;;11.60;99.90;;;;;;8384996;28;19967;-77
2023/04/09 02:58:55;;;;;;;;;;;11.60;99.90;;;;;;8394768;28;19932;-77
2023/04/09 03:02:57;;;;;;;;;;;11.60;99.90;;;;;;8389879;28;20340;-77
2023/04/09 03:06:59;;;;;;;;;;;11.50;99.90;;;;;;8383725;28;20257;-77
2023/04/09 03:11:00;;;;;;;;;;;11.60;99.90;;;;;;8391487;28;19925;-77
2023/04/09 03:15:03;;;;;;;;;;;11.50;99.90;;;;;;8377558;28;19932;-77
2023/04/09 03:19:05;;;;;;;;;;;11.50;99.90;;;;;;8400320;28;20229;-77
2023/04/09 03:23:06;;;;;;;;;;;11.50;99.90;;;;;;8380809;28;19928;-77
2023/04/09 03:27:08;;;;;;;;;;;11.40;99.90;;;;;;8393248;28;19925;-77
2023/04/09 03:31:10;;;;;;;;;;;11.40;99.90;;;;;;8395348;28;19970;-77
2023/04/09 03:35:11;;;;;;;;;;;11.40;99.90;;;;;;8408926;28;19924;-77
2023/04/09 03:39:13;;;;;;;;;;;11.40;99.90;;;;;;8388018;28;19979;-76
2023/04/09 03:43:15;;;;;;;;;;;11.30;99.90;;;;;;8392386;28;19925;-77
2023/04/09 03:47:16;;;;;;;;;;;11.30;99.90;;;;;;8374159;28;19932;-77
2023/04/09 03:51:18;;;;;;;;;;;11.30;99.90;;;;;;8376300;28;19925;-76
2023/04/09 03:55:20;;;;;;;;;;;11.20;99.90;;;;;;8386883;28;19924;-77
2023/04/09 03:59:21;;;;;;;;;;;11.20;99.90;;;;;;8394693;28;20293;-77
2023/04/09 04:03:23;;;;;;;;;;;11.20;99.90;;;;;;8383554;28;19928;-77
2023/04/09 04:07:25;;;;;;;;;;;11.20;99.90;;;;;;8385528;28;20015;-77
2023/04/09 04:11:26;;;;;;;;;;;11.20;99.90;;;;;;8398357;28;19924;-77
2023/04/09 04:15:28;;;;;;;;;;;11.20;99.90;;;;;;8435531;27;19928;-76
2023/04/09 04:19:29;;;;;;;;;;;11.20;99.90;;;;;;8395433;28;19939;-77
2023/04/09 04:23:32;;;;;;;;;;;11.20;99.90;;;;;;8408753;28;19925;-76
2023/04/09 04:27:34;;;;;;;;;;;11.10;99.90;;;;;;8397349;28;19925;-77
2023/04/09 04:31:36;;;;;;;;;;;11.00;99.90;;;;;;8400225;28;19924;-77
2023/04/09 04:35:37;;;;;;;;;;;11.00;99.90;;;;;;8398559;28;19925;-76
2023/04/09 04:39:39;;;;;;;;;;;11.00;99.90;;;;;;8386360;28;19925;-77
2023/04/09 04:43:41;;;;;;;;;;;11.00;99.90;;;;;;8389648;28;19924;-77
2023/04/09 04:47:42;;;;;;;;;;;11.00;99.90;;;;;;8403687;28;20035;-77
2023/04/09 04:51:44;;;;;;;;;;;11.10;99.90;;;;;;8388858;28;19928;-77
2023/04/09 04:55:46;;;;;;;;;;;11.10;99.90;;;;;;8377872;28;20029;-77
2023/04/09 04:59:47;;;;;;;;;;;11.00;99.90;;;;;;8396056;28;19928;-77
2023/04/09 05:03:49;;;;;;;;;;;11.00;99.90;;;;;;8409589;27;19929;-77
2023/04/09 05:07:51;;;;;;;;;;;11.00;99.90;;;;;;8379595;28;20292;-77
2023/04/09 05:11:52;;;;;;;;;;;11.00;99.90;;;;;;8400292;28;19924;-77
2023/04/09 05:15:54;;;;;;;;;;;10.90;99.90;;;;;;8390473;28;19924;-77
2023/04/09 05:19:56;;;;;;;;;;;10.90;99.90;;;;;;8397884;27;19924;-77
2023/04/09 05:23:58;;;;;;;;;;;10.90;99.90;;;;;;8380285;28;19928;-77
2023/04/09 05:28:00;;;;;;;;;;;10.90;99.90;;;;;;8406475;28;20027;-77
2023/04/09 05:32:01;;;;;;;;;;;10.90;99.90;;;;;;8394484;28;19928;-77
2023/04/09 05:36:03;;;;;;;;;;;10.90;99.90;;;;;;8385266;28;19979;-77
2023/04/09 05:40:05;;;;;;;;;;;10.90;99.90;;;;;;8389333;28;19928;-77
2023/04/09 05:44:07;;;;;;;;;;;10.90;99.90;;;;;;8392353;28;20019;-77
2023/04/09 05:48:08;;;;;;;;;;;10.90;99.90;;;;;;8386845;28;19931;-77
2023/04/09 05:52:10;;;;;;;;;;;10.90;99.90;;;;;;8388657;28;20356;-76
2023/04/09 05:56:15;;;;;;;;;;;10.90;99.90;;;;;;8383237;28;20375;-77
2023/04/09 06:00:17;;;;;;;;;;;10.80;99.90;;;;;;8410106;28;19932;-77
2023/04/09 06:04:18;;;;;;;;;;;10.80;99.90;;;;;;8413226;28;19983;-77
2023/04/09 06:08:20;;;;;;;;;;;10.80;99.90;;;;;;8394323;28;19968;-77
2023/04/09 06:12:22;;;;;;;;;;;10.80;99.90;;;;;;8385233;28;19925;-77
2023/04/09 06:16:23;;;;;;;;;;;10.80;99.90;;;;;;8385690;28;20513;-77
2023/04/09 06:20:25;;;;;;;;;;;10.80;99.90;;;;;;8396535;28;19924;-77
2023/04/09 06:24:26;;;;;;;;;;;10.80;99.90;;;;;;8396622;28;19924;-77
2023/04/09 06:28:28;;;;;;;;;;;10.80;99.90;;;;;;8395625;28;20551;-77
2023/04/09 06:32:30;;;;;;;;;;;10.80;99.90;;;;;;8403022;28;19931;-77
2023/04/09 06:36:36;;;;;;;;;;;10.80;99.90;;;;;;8426537;28;19935;-77
2023/04/09 06:40:38;;;;;;;;;;;10.80;99.90;;;;;;8401022;28;19925;-77
2023/04/09 06:44:40;;;;;;;;;;;10.90;99.90;;;;;;8380981;28;19936;-76
2023/04/09 06:48:43;;;;;;;;;;;10.90;99.90;;;;;;8383665;28;20004;-77
2023/04/09 06:52:45;;;;;;;;;;;10.90;99.90;;;;;;8398779;28;19924;-77
2023/04/09 06:56:46;;;;;;;;;;;10.90;99.90;;;;;;8381390;28;19932;-77
2023/04/09 07:00:48;;;;;;;;;;;11.00;99.90;;;;;;8385378;28;19937;-77
2023/04/09 07:04:50;;;;;;;;;;;11.10;99.90;;;;;;8385347;28;19928;-77
2023/04/09 07:08:51;;;;;;;;;;;11.20;99.90;;;;;;8386474;28;20269;-77
2023/04/09 07:12:53;;;;;;;;;;;11.30;99.90;;;;;;8392004;28;19966;-76
2023/04/09 07:16:55;;;;;;;;;;;11.30;99.90;;;;;;8389513;28;19975;-77
2023/04/09 07:20:57;;;;;;;;;;;11.40;99.90;;;;;;8392208;28;19946;-76
2023/04/09 07:24:58;;;;;;;;;;;11.40;99.90;;;;;;8390469;28;19968;-76
2023/04/09 07:29:00;;;;;;;;;;;11.50;99.90;;;;;;8389067;28;19925;-76
2023/04/09 07:33:02;;;;;;;;;;;11.60;99.90;;;;;;8392481;28;19931;-77
2023/04/09 07:37:04;;;;;;;;;;;11.70;99.90;;;;;;8392535;28;19982;-77
2023/04/09 07:41:06;;;;;;;;;;;11.80;99.90;;;;;;8386439;28;19939;-77
2023/04/09 07:45:08;;;;;;;;;;;12.10;99.90;;;;;;8396712;28;20015;-77
2023/04/09 07:49:09;;;;;;;;;;;12.20;99.90;;;;;;8388155;28;19939;-77
2023/04/09 07:53:11;;;;;;;;;;;12.30;99.90;;;;;;8380570;28;19924;-78
2023/04/09 07:57:12;;;;;;;;;;;12.50;99.90;;;;;;8407353;28;19954;-78
2023/04/09 08:01:14;;;;;;;;;;;12.50;99.90;;;;;;8387474;28;20039;-77
2023/04/09 08:05:16;;;;;;;;;;;12.60;99.90;;;;;;8401706;28;19925;-77
2023/04/09 08:09:18;;;;;;;;;;;12.60;99.90;;;;;;8392029;28;19932;-77
2023/04/09 08:13:21;;;;;;;;;;;12.70;99.90;;;;;;8403887;28;19925;-77
2023/04/09 08:17:23;;;;;;;;;;;12.70;99.90;;;;;;8392116;28;19924;-77
2023/04/09 08:21:25;;;;;;;;;;;12.60;99.90;;;;;;8383688;28;19924;-77
2023/04/09 08:25:27;;;;;;;;;;;12.70;99.90;;;;;;8399154;28;19932;-77
2023/04/09 08:29:30;;;;;;;;;;;12.80;99.90;;;;;;8394257;28;19928;-77
2023/04/09 08:33:32;;;;;;;;;;;12.90;99.90;;;;;;8390709;28;19929;-77
2023/04/09 08:37:34;;;;;;;;;;;13.00;99.90;;;;;;8394388;28;20374;-77
2023/04/09 08:41:39;;;;;;;;;;;13.30;99.90;;;;;;8387187;28;19965;-77
2023/04/09 08:45:41;;;;;;;;;;;13.30;99.90;;;;;;8391478;28;20020;-77
2023/04/09 08:49:43;;;;;;;;;;;13.40;99.90;;;;;;8391307;28;19928;-77
2023/04/09 08:53:46;;;;;;;;;;;13.60;99.90;;;;;;8399316;28;20379;-77
2023/04/09 08:57:48;;;;;;;;;;;13.70;99.90;;;;;;8391661;28;19928;-77
2023/04/09 09:02:05;;;;;;;;;;;13.70;99.90;;;;;;8392184;28;20283;-77
2023/04/09 09:06:19;;;;;;;;;;;13.60;99.90;;;;;;8390972;28;19977;-77
2023/04/09 09:10:35;;;;;;;;;;;13.60;99.90;;;;;;8389905;28;20019;-77
2023/04/09 09:14:37;;;;;;;;;;;13.90;99.90;;;;;;8387165;28;19924;-77
2023/04/09 09:18:42;;;;;;;;;;;14.00;99.90;;;;;;8387769;28;20015;-77
2023/04/09 09:22:49;;;;;;;;;;;14.00;99.90;;;;;;8392658;28;19928;-77
2023/04/09 09:26:58;;;;;;;;;;;14.00;99.90;;;;;;8398472;28;19931;-77
2023/04/09 09:31:06;;;;;;;;;;;14.40;99.90;;;;;;8385481;28;19924;-78
2023/04/09 09:35:08;;;;;;;;;;;14.70;99.90;;;;;;8386368;28;19954;-77
2023/04/09 09:39:11;;;;;;;;;;;14.70;99.90;;;;;;8417983;28;20363;-77
2023/04/09 09:43:13;;;;;;;;;;;14.60;99.90;;;;;;8404178;28;19980;-77
2023/04/09 09:47:16;;;;;;;;;;;14.80;99.90;;;;;;8375847;28;19933;-77
2023/04/09 09:51:18;;;;;;;;;;;14.90;99.90;;;;;;8400609;28;19925;-77
2023/04/09 09:55:22;;;;;;;;;;;15.10;99.90;;;;;;8389867;28;19933;-77
2023/04/09 09:59:25;;;;;;;;;;;15.20;99.90;;;;;;8397799;28;20015;-77
2023/04/09 10:03:29;;;;;;;;;;;15.40;99.90;;;;;;8387487;28;20398;-77
2023/04/09 10:07:31;;;;;;;;;;;15.50;99.90;;;;;;8391508;28;19924;-77
2023/04/09 10:11:34;;;;;;;;;;;15.80;99.90;;;;;;8397447;28;19924;-77
2023/04/09 10:15:37;;;;;;;;;;;16.10;99.90;;;;;;8388670;28;20346;-77
2023/04/09 10:19:43;;;;;;;;;;;16.40;99.90;;;;;;8395703;28;20654;-77
2023/04/09 10:23:48;;;;;;;;;;;16.70;99.90;;;;;;8388175;28;19940;-77
2023/04/09 10:27:58;;;;;;;;;;;16.80;99.90;;;;;;8389708;28;19959;-77
2023/04/09 10:32:05;;;;;;;;;;;17.20;99.90;;;;;;8391751;28;19964;-77
2023/04/09 10:36:11;;;;;;;;;;;17.60;99.90;;;;;;8413144;28;19928;-78
2023/04/09 10:40:18;;;;;;;;;;;17.90;99.90;;;;;;8392010;28;20414;-77
2023/04/09 10:44:20;;;;;;;;;;;18.10;99.90;;;;;;8385628;28;19925;-77
2023/04/09 10:48:24;;;;;;;;;;;18.30;99.90;;;;;;8390283;28;20287;-76
2023/04/09 10:52:29;;;;;;;;;;;18.30;99.90;;;;;;8383322;28;20284;-75
2023/04/09 10:56:30;;;;;;;;;;;18.30;99.90;;;;;;8382410;28;19968;-76
2023/04/09 11:00:35;;;;;;;;;;;18.50;99.90;;;;;;8393788;28;20263;-75
2023/04/09 11:04:40;;;;;;;;;;;18.80;99.90;;;;;;8405793;28;19931;-75
2023/04/09 11:08:43;;;;;;;;;;;18.80;99.90;;;;;;8397597;28;20299;-76
2023/04/09 11:12:48;;;;;;;;;;;18.60;99.90;;;;;;8393610;28;20384;-76
2023/04/09 11:16:50;;;;;;;;;;;18.30;99.90;;;;;;8397264;28;19975;-76
2023/04/09 11:20:55;;;;;;;;;;;18.00;99.90;;;;;;8390828;28;20335;-76
2023/04/09 11:24:57;;;;;;;;;;;18.00;99.90;;;;;;8401421;28;19940;-76
2023/04/09 11:29:03;;;;;;;;;;;18.10;99.90;;;;;;8401823;28;20395;-75
2023/04/09 11:33:05;;;;;;;;;;;17.90;99.90;;;;;;8392095;28;20031;-76
2023/04/09 11:37:12;;;;;;;;;;;18.40;99.90;;;;;;8389983;28;19924;-76
2023/04/09 11:41:15;;;;;;;;;;;18.80;99.90;;;;;;8376238;28;19956;-76
2023/04/09 11:45:17;;;;;;;;;;;19.00;99.90;;;;;;8372833;28;19932;-75
2023/04/09 11:49:19;;;;;;;;;;;19.60;99.90;;;;;;8370173;28;19929;-76
2023/04/09 11:53:22;;;;;;;;;;;20.40;99.90;;;;;;8372435;28;19931;-76
2023/04/09 11:57:24;;;;;;;;;;;21.00;99.90;;;;;;8371551;28;19929;-76
2023/04/09 12:01:30;;;;;;;;;;;21.20;99.90;;;;;;8369757;28;19971;-76
2023/04/09 12:05:32;;;;;;;;;;;21.40;99.90;;;;;;8372883;28;19932;-76
2023/04/09 12:09:44;;;;;;;;;;;21.70;99.90;;;;;;8369721;28;20376;-76
2023/04/09 12:13:46;;;;;;;;;;;21.80;99.90;;;;;;8370048;28;19928;-76
2023/04/09 12:17:49;;;;;;;;;;;22.30;99.90;;;;;;8370620;28;19960;-76
2023/04/09 12:21:57;;;;;;;;;;;22.80;99.90;;;;;;8368635;28;19925;-76
2023/04/09 12:25:59;;;;;;;;;;;23.30;99.90;;;;;;8369594;28;19964;-76
2023/04/09 12:30:01;;;;;;;;;;;23.70;99.90;;;;;;8369458;28;20522;-76
2023/04/09 12:34:03;;;;;;;;;;;23.70;99.90;;;;;;8364945;28;19929;-76
2023/04/09 12:38:04;;;;;;;;;;;23.30;99.90;;;;;;8364061;28;19925;-76
2023/04/09 12:42:06;;;;;;;;;;;23.00;99.90;;;;;;8364697;28;20295;-76
2023/04/09 12:46:08;;;;;;;;;;;22.60;99.90;;;;;;8365899;28;19929;-76
2023/04/09 12:50:10;;;;;;;;;;;21.90;99.90;;;;;;8366506;28;19928;-75
2023/04/09 12:54:12;;;;;;;;;;;21.10;99.90;;;;;;8370364;28;20019;-76
2023/04/09 12:58:14;;;;;;;;;;;20.60;99.90;;;;;;8381569;28;20023;-76
2023/04/09 13:02:15;;;;;;;;;;;20.30;99.90;;;;;;8367174;28;19925;-76
2023/04/09 13:06:17;;;;;;;;;;;19.90;99.90;;;;;;8381735;28;19947;-76
2023/04/09 13:10:19;;;;;;;;;;;19.70;99.30;;;;;;8369910;28;19924;-76
2023/04/09 13:14:20;;;;;;;;;;;19.50;98.20;;;;;;8382040;28;19924;-76
2023/04/09 13:18:22;;;;;;;;;;;19.30;98.50;;;;;;8385289;28;19925;-76
2023/04/09 13:22:24;;;;;;;;;;;19.40;98.50;;;;;;8365311;28;19924;-76
2023/04/09 13:26:25;;;;;;;;;;;19.50;98.50;;;;;;8365198;28;19930;-76
2023/04/09 13:30:27;;;;;;;;;;;19.90;96.90;;;;;;8373968;28;20003;-76
2023/04/09 13:34:29;;;;;;;;;;;19.90;99.30;;;;;;8366924;28;19929;-76
2023/04/09 13:38:30;;;;;;;;;;;19.80;98.20;;;;;;8365634;28;19932;-76
2023/04/09 13:42:32;;;;;;;;;;;19.70;99.10;;;;;;8400213;28;19933;-76
2023/04/09 13:46:34;;;;;;;;;;;19.70;98.60;;;;;;8366848;28;19939;-76
2023/04/09 13:50:36;;;;;;;;;;;19.90;99.30;;;;;;8397472;28;19925;-76
2023/04/09 13:54:37;;;;;;;;;;;20.30;96.90;;;;;;8367125;28;19971;-76
2023/04/09 13:58:39;;;;;;;;;;;20.40;97.90;;;;;;8371176;28;19986;-76
2023/04/09 14:02:40;;;;;;;;;;;20.60;96.20;;;;;;8365363;28;20380;-76
2023/04/09 14:06:42;;;;;;;;;;;21.20;98.80;;;;;;8365235;28;20269;-76
2023/04/09 14:10:44;;;;;;;;;;;21.40;97.30;;;;;;8366877;28;19946;-76
2023/04/09 14:14:46;;;;;;;;;;;21.30;98.10;;;;;;8361586;28;19929;-76
2023/04/09 14:18:47;;;;;;;;;;;21.40;98.00;;;;;;8396976;28;20014;-77
2023/04/09 14:22:49;;;;;;;;;;;22.20;99.20;;;;;;8362602;28;20040;-76
2023/04/09 14:26:52;;;;;;;;;;;22.10;96.70;;;;;;8368723;28;19925;-76
2023/04/09 14:30:54;;;;;;;;;;;21.70;99.30;;;;;;8361996;28;20047;-76
2023/04/09 14:34:55;;;;;;;;;;;21.50;97.60;;;;;;8369091;28;19929;-76
2023/04/09 14:38:57;;;;;;;;;;;21.20;97.10;;;;;;8374898;28;19971;-76
2023/04/09 14:42:59;;;;;;;;;;;21.20;98.40;;;;;;8368207;28;19968;-76
2023/04/09 14:47:00;;;;;;;;;;;22.20;99.90;;;;;;8370239;28;19931;-76
2023/04/09 14:51:02;;;;;;;;;;;22.60;97.90;;;;;;8364925;28;20065;-76
2023/04/09 14:55:04;;;;;;;;;;;22.30;98.90;;;;;;8367219;28;19939;-76
2023/04/09 14:59:06;;;;;;;;;;;22.00;98.40;;;;;;8358407;28;19979;-76
2023/04/09 15:03:09;;;;;;;;;;;21.60;97.80;;;;;;8363504;28;20520;-76
2023/04/09 15:07:11;;;;;;;;;;;21.30;95.40;;;;;;8380138;28;19955;-76
2023/04/09 15:11:14;;;;;;;;;;;21.80;97.70;;;;;;8369000;28;19975;-75
2023/04/09 15:15:16;;;;;;;;;;;22.30;99.30;;;;;;8373191;28;19929;-76
2023/04/09 15:19:17;;;;;;;;;;;22.90;98.90;;;;;;8370147;28;19937;-76
2023/04/09 15:23:19;;;;;;;;;;;23.70;99.90;;;;;;8366205;28;19944;-77
2023/04/09 15:27:20;;;;;;;;;;;24.30;99.90;;;;;;8367082;28;19928;-76
2023/04/09 15:31:22;;;;;;;;;;;24.70;99.80;;;;;;8368644;28;19928;-77
2023/04/09 15:35:27;;;;;;;;;;;25.10;99.90;;;;;;8367403;28;19929;-76
2023/04/09 15:39:31;;;;;;;;;;;25.10;99.90;;;;;;8366253;28;19977;-77
2023/04/09 15:43:32;;;;;;;;;;;24.00;99.00;;;;;;8368304;28;20023;-76
2023/04/09 15:47:34;;;;;;;;;;;23.70;97.80;;;;;;8399959;28;19932;-77
2023/04/09 15:51:36;;;;;;;;;;;24.50;99.90;;;;;;8371415;28;19932;-76
2023/04/09 15:55:37;;;;;;;;;;;25.30;99.90;;;;;;8384793;28;20388;-76
2023/04/09 15:59:39;;;;;;;;;;;26.00;99.90;;;;;;8363815;28;20368;-77
2023/04/09 16:03:41;;;;;;;;;;;26.40;95.20;;;;;;8366100;28;19931;-76
2023/04/09 16:07:42;;;;;;;;;;;26.50;98.50;;;;;;8366300;28;19937;-76
2023/04/09 16:11:45;;;;;;;;;;;26.70;98.80;;;;;;8367800;28;19924;-77
2023/04/09 16:15:48;;;;;;;;;;;27.00;99.90;;;;;;8366373;28;19932;-76
2023/04/09 16:19:49;;;;;;;;;;;26.90;95.60;;;;;;8368967;28;19928;-76
2023/04/09 16:23:51;;;;;;;;;;;26.60;94.00;;;;;;8365155;28;20304;-76
2023/04/09 16:27:53;;;;;;;;;;;26.40;97.50;;;;;;8367353;28;19959;-76
2023/04/09 16:31:56;;;;;;;;;;;26.50;94.70;;;;;;8368766;28;19924;-76
2023/04/09 16:35:58;;;;;;;;;;;26.30;93.40;;;;;;8379013;28;19932;-76
2023/04/09 16:40:00;;;;;;;;;;;25.80;91.50;;;;;;8370155;28;19929;-76
2023/04/09 16:44:01;;;;;;;;;;;25.60;91.20;;;;;;8365424;28;19953;-76
2023/04/09 16:48:05;;;;;;;;;;;25.50;93.00;;;;;;8362649;28;20019;-76
2023/04/09 16:52:06;;;;;;;;;;;25.20;92.40;;;;;;8366464;28;19967;-76
2023/04/09 16:56:08;;;;;;;;;;;25.40;90.60;;;;;;8373900;28;20023;-76
2023/04/09 17:00:11;;;;;;;;;;;25.30;89.70;;;;;;8374223;28;20023;-76
2023/04/09 17:04:13;;;;;;;;;;;25.10;90.20;;;;;;8365814;28;19971;-76
2023/04/09 17:08:16;;;;;;;;;;;24.90;90.80;;;;;;8366109;28;19924;-76
2023/04/09 17:12:17;;;;;;;;;;;24.70;86.60;;;;;;8364006;28;20339;-76
2023/04/09 17:16:19;;;;;;;;;;;24.60;90.00;;;;;;8383347;28;20339;-76
2023/04/09 17:20:23;;;;;;;;;;;24.50;85.40;;;;;;8366234;28;19930;-79
2023/04/09 17:24:24;;;;;;;;;;;24.40;86.70;;;;;;8363213;28;19929;-76
2023/04/09 17:28:26;;;;;;;;;;;24.20;87.40;;;;;;8360798;28;19931;-76
2023/04/09 17:32:27;;;;;;;;;;;24.00;83.80;;;;;;8356674;28;19972;-76
2023/04/09 17:36:30;;;;;;;;;;;23.90;84.70;;;;;;8361663;28;20395;-76
2023/04/09 17:40:32;;;;;;;;;;;23.60;84.80;;;;;;8362941;28;19928;-75
2023/04/09 17:44:34;;;;;;;;;;;23.30;84.90;;;;;;8377330;28;19968;-76
2023/04/09 17:48:36;;;;;;;;;;;23.10;83.10;;;;;;8354997;28;19932;-76
2023/04/09 17:52:38;;;;;;;;;;;23.00;82.50;;;;;;8360802;28;20043;-76
2023/04/09 17:56:39;;;;;;;;;;;22.70;82.20;;;;;;8363994;28;20032;-76
2023/04/09 18:00:42;;;;;;;;;;;22.20;80.90;;;;;;8358729;28;20414;-76
2023/04/09 18:04:43;;;;;;;;;;;21.60;79.80;;;;;;8360607;28;19930;-76
2023/04/09 18:08:45;;;;;;;;;;;20.80;79.00;;;;;;8362133;28;19928;-76
2023/04/09 18:12:50;;;;;;;;;;;20.20;78.20;;;;;;8365241;28;20368;-76
2023/04/09 18:16:52;;;;;;;;;;;19.60;77.50;;;;;;8361036;28;19939;-76
2023/04/09 18:20:54;;;;;;;;;;;19.20;77.70;;;;;;8363074;28;19940;-75
2023/04/09 18:24:55;;;;;;;;;;;18.80;77.60;;;;;;8368428;28;19932;-75
2023/04/09 18:28:57;;;;;;;;;;;18.50;77.60;;;;;;8372160;28;20392;-76
2023/04/09 18:33:01;;;;;;;;;;;18.20;77.30;;;;;;8366738;28;20863;-76
2023/04/09 18:37:02;;;;;;;;;;;18.00;77.70;;;;;;8357419;28;21075;-75
2023/04/09 18:41:04;;;;;;;;;;;17.80;77.40;;;;;;8372170;28;20438;-76
2023/04/09 18:45:06;;;;;;;;;;;17.60;77.10;;;;;;8365851;28;19933;-75
2023/04/09 18:49:08;;;;;;;;;;;17.50;76.80;;;;;;8365483;28;19936;-75
2023/04/09 18:53:10;;;;;;;;;;;17.40;77.00;;;;;;8361243;28;20367;-75
2023/04/09 18:57:12;;;;;;;;;;;17.20;77.50;;;;;;8364878;28;19931;-76
2023/04/09 19:01:13;;;;;;;;;;;17.00;76.80;;;;;;8356967;28;19924;-75
2023/04/09 19:05:16;;;;;;;;;;;16.90;77.00;;;;;;8390381;28;20292;-76
2023/04/09 19:09:18;;;;;;;;;;;16.80;77.20;;;;;;8359301;28;19948;-75
2023/04/09 19:13:19;;;;;;;;;;;16.70;77.10;;;;;;8358311;28;19985;-75
2023/04/09 19:17:21;;;;;;;;;;;16.60;77.10;;;;;;8362815;28;19930;-75
2023/04/09 19:31:30;;;;;;;;;;;15.70;77.30;;;;;;8356094;28;19931;-75
2023/04/09 19:35:34;;;;;;;;;;;15.50;77.50;;;;;;8374870;28;21406;-75
2023/04/09 19:39:36;;;;;;;;;;;15.50;77.90;;;;;;8368063;28;20665;-75
2023/04/09 19:43:37;;;;;;;;;;;15.50;78.70;;;;;;8364276;28;19968;-75
2023/04/09 19:47:39;;;;;;;;;;;15.40;78.10;;;;;;8396764;27;20384;-76
2023/04/09 19:51:41;;;;;;;;;;;15.40;78.70;;;;;;8365982;28;19932;-75
2023/04/09 19:55:43;;;;;;;;;;;15.40;78.30;;;;;;8366770;28;19964;-75
2023/04/09 19:59:45;;;;;;;;;;;15.20;77.80;;;;;;8379137;28;19924;-75
2023/04/09 20:03:49;;;;;;;;;;;15.00;78.50;;;;;;8367294;28;20429;-75
2023/04/09 20:07:52;;;;;;;;;;;14.80;79.30;;;;;;8366567;28;19925;-75
2023/04/09 20:11:54;;;;;;;;;;;14.60;77.80;;;;;;8364176;28;19931;-75
2023/04/09 20:15:56;;;;;;;;;;;14.40;78.50;;;;;;8365259;28;19928;-75
2023/04/09 20:19:57;;;;;;;;;;;14.40;78.80;;;;;;8381809;28;20069;-75
2023/04/09 20:23:59;;;;;;;;;;;14.40;79.00;;;;;;8360928;28;20040;-75
2023/04/09 20:28:02;;;;;;;;;;;14.40;78.20;;;;;;8362608;28;19963;-75
2023/04/09 20:32:04;;;;;;;;;;;14.40;78.80;;;;;;8361033;28;19928;-75
2023/04/09 20:36:13;;;;;;;;;;;14.30;78.20;;;;;;8366213;28;19933;-75
2023/04/09 20:40:15;;;;;;;;;;;14.20;78.00;;;;;;8358498;28;20003;-75
2023/04/09 20:44:16;;;;;;;;;;;14.10;77.60;;;;;;8361579;28;19979;-75
2023/04/09 20:48:18;;;;;;;;;;;14.10;77.90;;;;;;8361695;28;20405;-75
2023/04/09 20:52:20;;;;;;;;;;;14.00;77.30;;;;;;8363958;28;20022;-75
2023/04/09 20:56:22;;;;;;;;;;;14.00;77.40;;;;;;8358545;28;19977;-75
2023/04/09 21:00:24;;;;;;;;;;;14.00;77.50;;;;;;8360212;28;20019;-75
2023/04/09 21:04:26;;;;;;;;;;;13.80;77.80;;;;;;8381609;28;19924;-75
2023/04/09 21:08:28;;;;;;;;;;;13.80;76.40;;;;;;8378228;28;19931;-75
2023/04/09 21:12:31;;;;;;;;;;;13.80;77.50;;;;;;8374838;28;20047;-75
2023/04/09 21:16:33;;;;;;;;;;;13.80;78.70;;;;;;8380077;28;20068;-74
2023/04/09 21:20:34;;;;;;;;;;;13.70;79.30;;;;;;8383788;28;19925;-75
2023/04/09 21:24:37;;;;;;;;;;;13.70;78.70;;;;;;8376776;28;20334;-76
2023/04/09 21:28:38;;;;;;;;;;;13.60;78.70;;;;;;8384087;28;20040;-75
2023/04/09 21:32:40;;;;;;;;;;;13.60;78.70;;;;;;8387342;28;19954;-75
2023/04/09 21:36:43;;;;;;;;;;;13.50;77.60;;;;;;8389598;28;20421;-75
2023/04/09 21:40:46;;;;;;;;;;;13.40;77.80;;;;;;8385434;28;20302;-75
2023/04/09 21:44:47;;;;;;;;;;;13.30;78.70;;;;;;8416576;27;20454;-75
2023/04/09 21:48:49;;;;;;;;;;;13.30;79.00;;;;;;8384087;28;19959;-75
2023/04/09 21:52:51;;;;;;;;;;;13.20;78.80;;;;;;8382280;28;20006;-75
2023/04/09 21:56:53;;;;;;;;;;;13.10;78.70;;;;;;8414370;28;22354;-75
2023/04/09 22:00:55;;;;;;;;;;;13.00;77.50;;;;;;8378660;28;19924;-75
2023/04/09 22:04:58;;;;;;;;;;;13.00;78.80;;;;;;8381505;28;20405;-75
2023/04/09 22:09:00;;;;;;;;;;;12.90;77.20;;;;;;8373840;28;19932;-75
2023/04/09 22:13:02;;;;;;;;;;;12.80;78.40;;;;;;8393152;28;19938;-75
2023/04/09 22:17:04;;;;;;;;;;;12.70;79.00;;;;;;8388057;28;20015;-75
2023/04/09 22:21:06;;;;;;;;;;;12.60;78.80;;;;;;8395738;28;19968;-75
2023/04/09 22:25:08;;;;;;;;;;;12.60;78.30;;;;;;8393844;28;19975;-75
2023/04/09 22:29:09;;;;;;;;;;;12.60;77.60;;;;;;8389958;28;19932;-75
2023/04/09 22:33:11;;;;;;;;;;;12.50;78.60;;;;;;8392476;28;19936;-75
2023/04/09 22:37:12;;;;;;;;;;;12.50;78.60;;;;;;8380086;28;19929;-75
2023/04/09 22:41:16;;;;;;;;;;;12.40;77.30;;;;;;8375395;28;20361;-75
2023/04/09 22:45:18;;;;;;;;;;;12.40;80.90;;;;;;8390531;28;19929;-75
2023/04/09 22:49:20;;;;;;;;;;;12.30;79.00;;;;;;8392256;28;20470;-75
2023/04/09 22:53:21;;;;;;;;;;;12.20;79.30;;;;;;8394064;28;20011;-75
2023/04/09 22:57:23;;;;;;;;;;;12.10;79.20;;;;;;8385797;28;19924;-75
2023/04/09 23:01:25;;;;;;;;;;;12.10;79.60;;;;;;8386013;28;19993;-75
2023/04/09 23:05:27;;;;;;;;;;;12.10;78.10;;;;;;8393722;28;19939;-75
2023/04/09 23:09:32;;;;;;;;;;;12.10;80.20;;;;;;8411258;28;20483;-77
2023/04/09 23:13:33;;;;;;;;;;;12.10;79.70;;;;;;8385138;28;19939;-77
2023/04/09 23:17:35;;;;;;;;;;;12.10;79.70;;;;;;8388834;28;19932;-77
2023/04/09 23:21:37;;;;;;;;;;;12.00;79.90;;;;;;8384757;28;19979;-77
2023/04/09 23:25:38;;;;;;;;;;;12.00;79.90;;;;;;8387682;28;20028;-77
2023/04/09 23:29:40;;;;;;;;;;;12.00;79.10;;;;;;8371678;28;19934;-77
2023/04/09 23:33:42;;;;;;;;;;;11.90;80.40;;;;;;8384743;28;19949;-77
2023/04/09 23:37:44;;;;;;;;;;;11.90;80.00;;;;;;8393539;28;20388;-77